createdAt,value
2022-11-03T00:00:13.029Z,94.91
2022-11-03T00:01:15.372Z,95.15
2022-11-03T00:02:18.449Z,94.95
2022-11-03T00:03:20.425Z,95.28
2022-11-03T00:04:23.962Z,95.26
2022-11-03T00:05:44.458Z,95.07
2022-11-03T00:06:49.415Z,95.46
2022-11-03T00:07:51.333Z,95.67
2022-11-03T00:08:54.251Z,95.61
2022-11-03T00:09:57.489Z,95.40
2022-11-03T00:11:04.678Z,95.78
2022-11-03T00:12:08.270Z,95.58
2022-11-03T00:13:10.215Z,95.92
2022-11-03T00:14:14.953Z,95.80
2022-11-03T00:15:16.810Z,95.79
2022-11-03T00:16:19.731Z,96.27
2022-11-03T00:17:21.685Z,96.19
2022-11-03T00:18:24.597Z,96.08
2022-11-03T00:19:26.467Z,96.46
2022-11-03T00:20:29.342Z,96.45
2022-11-03T00:21:32.109Z,96.33
2022-11-03T00:22:35.026Z,96.92
2022-11-03T00:23:38.902Z,96.81
2022-11-03T00:24:41.703Z,97.10
2022-11-03T00:25:45.005Z,97.41
2022-11-03T00:26:47.853Z,97.38
2022-11-03T00:27:54.934Z,97.86
2022-11-03T00:29:00.526Z,97.55
2022-11-03T00:30:02.466Z,97.85
2022-11-03T00:31:09.867Z,98.04
2022-11-03T00:32:11.747Z,98.33
2022-11-03T00:33:14.652Z,98.19
2022-11-03T00:34:16.565Z,98.11
2022-11-03T00:35:19.447Z,98.33
2022-11-03T00:36:23.614Z,98.20
2022-11-03T00:37:26.504Z,98.61
2022-11-03T00:38:29.299Z,98.65
2022-11-03T00:39:32.536Z,98.63
2022-11-03T00:40:34.617Z,98.45
2022-11-03T00:41:39.745Z,98.42
2022-11-03T00:42:41.672Z,98.82
2022-11-03T00:43:44.587Z,98.48
2022-11-03T00:44:46.480Z,98.24
2022-11-03T00:45:49.473Z,98.63
2022-11-03T00:46:52.389Z,98.31
2022-11-03T00:48:15.091Z,98.64
2022-11-03T00:49:17.992Z,98.52
2022-11-03T00:50:19.874Z,98.77
2022-11-03T00:51:24.242Z,98.84
2022-11-03T00:52:26.152Z,98.97
2022-11-03T00:53:29.569Z,99.27
2022-11-03T00:54:32.460Z,98.91
2022-11-03T00:55:34.316Z,99.02
2022-11-03T00:56:39.744Z,99.02
2022-11-03T00:57:41.619Z,99.06
2022-11-03T00:58:45.527Z,99.54
2022-11-03T00:59:47.380Z,99.56
2022-11-03T01:00:50.304Z,99.69
2022-11-03T01:01:52.416Z,99.38
2022-11-03T01:02:55.370Z,99.36
2022-11-03T01:04:17.041Z,99.62
2022-11-03T01:05:37.232Z,99.60
2022-11-03T01:06:50.058Z,99.90
2022-11-03T01:07:54.267Z,99.57
2022-11-03T01:08:58.851Z,99.32
2022-11-03T01:10:01.886Z,99.65
2022-11-03T01:11:27.570Z,99.69
2022-11-03T01:12:32.197Z,99.79
2022-11-03T01:13:34.418Z,99.35
2022-11-03T01:14:40.408Z,99.75
2022-11-03T01:15:42.607Z,99.27
2022-11-03T01:16:45.520Z,99.51
2022-11-03T01:17:47.385Z,99.43
2022-11-03T01:18:50.567Z,99.43
2022-11-03T01:19:54.062Z,99.12
2022-11-03T01:20:56.652Z,98.91
2022-11-03T01:21:59.576Z,98.94
2022-11-03T01:23:01.486Z,98.75
2022-11-03T01:24:05.401Z,99.02
2022-11-03T01:25:08.012Z,98.43
2022-11-03T01:26:13.039Z,98.86
2022-11-03T01:27:19.014Z,98.43
2022-11-03T01:28:22.261Z,98.36
2022-11-03T01:29:25.219Z,98.58
2022-11-03T01:30:27.097Z,97.96
2022-11-03T01:31:30.328Z,97.93
2022-11-03T01:32:32.184Z,98.27
2022-11-03T01:33:35.303Z,98.02
2022-11-03T01:34:37.740Z,97.86
2022-11-03T01:35:40.643Z,98.26
2022-11-03T01:36:43.162Z,97.88
2022-11-03T01:37:46.005Z,97.74
2022-11-03T01:38:48.624Z,97.74
2022-11-03T01:39:51.525Z,97.90
2022-11-03T01:40:53.438Z,97.37
2022-11-03T01:41:56.372Z,97.43
2022-11-03T01:43:16.448Z,97.51
2022-11-03T01:44:29.791Z,97.12
2022-11-03T01:45:31.981Z,97.04
2022-11-03T01:46:40.157Z,97.11
2022-11-03T01:47:43.734Z,97.09
2022-11-03T01:48:54.621Z,96.86
2022-11-03T01:50:02.488Z,96.56
2022-11-03T01:51:08.257Z,96.49
2022-11-03T01:52:13.838Z,96.60
2022-11-03T01:53:19.384Z,96.16
2022-11-03T01:54:24.430Z,96.04
2022-11-03T01:55:32.662Z,96.43
2022-11-03T01:56:36.934Z,96.13
2022-11-03T01:57:42.365Z,96.07
2022-11-03T01:58:49.348Z,95.92
2022-11-03T01:59:58.002Z,95.49
2022-11-03T02:01:01.663Z,95.60
2022-11-03T02:02:05.168Z,95.69
2022-11-03T02:03:07.717Z,95.91
2022-11-03T02:04:15.071Z,95.62
2022-11-03T02:05:18.433Z,95.44
2022-11-03T02:06:26.450Z,95.28
2022-11-03T02:07:34.091Z,95.19
2022-11-03T02:08:40.654Z,95.56
2022-11-03T02:09:42.668Z,95.30
2022-11-03T02:10:48.809Z,95.10
2022-11-03T02:12:09.202Z,94.83
2022-11-03T02:13:17.497Z,94.97
2022-11-03T02:14:19.614Z,94.80
2022-11-03T02:15:25.064Z,94.92
2022-11-03T02:16:31.081Z,94.81
2022-11-03T02:17:35.188Z,94.76
2022-11-03T02:18:38.305Z,94.59
2022-11-03T02:19:45.504Z,94.25
2022-11-03T02:20:56.888Z,94.74
2022-11-03T02:22:05.748Z,94.69
2022-11-03T02:23:30.623Z,94.19
2022-11-03T02:24:43.693Z,94.55
2022-11-03T02:25:49.405Z,94.24
2022-11-03T02:26:55.569Z,94.38
2022-11-03T02:27:59.306Z,94.46
2022-11-03T02:29:02.187Z,94.40
2022-11-03T02:30:05.087Z,94.60
2022-11-03T02:31:15.882Z,94.42
2022-11-03T02:32:21.448Z,94.03
2022-11-03T02:33:49.638Z,94.09
2022-11-03T02:35:02.445Z,94.31
2022-11-03T02:36:12.665Z,93.74
2022-11-03T02:37:18.067Z,94.13
2022-11-03T02:38:22.820Z,93.74
2022-11-03T02:39:32.214Z,93.91
2022-11-03T02:40:40.603Z,94.08
2022-11-03T02:41:48.005Z,93.95
2022-11-03T02:42:53.004Z,93.59
2022-11-03T02:43:58.067Z,93.65
2022-11-03T02:45:03.704Z,93.67
2022-11-03T02:46:07.415Z,93.82
2022-11-03T02:47:11.765Z,93.47
2022-11-03T02:48:17.086Z,93.55
2022-11-03T02:49:19.344Z,93.66
2022-11-03T02:50:27.151Z,93.39
2022-11-03T02:51:29.080Z,93.43
2022-11-03T02:52:37.510Z,93.39
2022-11-03T02:53:46.435Z,93.51
2022-11-03T02:54:48.454Z,93.28
2022-11-03T02:56:00.628Z,93.45
2022-11-03T02:57:07.653Z,93.46
2022-11-03T02:58:17.497Z,93.24
2022-11-03T02:59:25.217Z,93.08
2022-11-03T03:00:32.189Z,93.43
2022-11-03T03:01:47.378Z,93.29
2022-11-03T03:02:58.503Z,93.04
2022-11-03T03:04:01.685Z,93.12
2022-11-03T03:05:09.329Z,93.06
2022-11-03T03:06:16.859Z,93.30
2022-11-03T03:07:26.292Z,93.38
2022-11-03T03:08:30.691Z,93.33
2022-11-03T03:09:38.453Z,92.74
2022-11-03T03:10:43.601Z,93.15
2022-11-03T03:11:50.288Z,92.86
2022-11-03T03:12:57.972Z,92.69
2022-11-03T03:14:01.144Z,92.58
2022-11-03T03:15:06.127Z,92.68
2022-11-03T03:16:16.772Z,92.94
2022-11-03T03:17:24.116Z,92.78
2022-11-03T03:18:31.443Z,92.95
2022-11-03T03:19:47.615Z,92.89
2022-11-03T03:20:57.520Z,92.67
2022-11-03T03:22:09.200Z,92.66
2022-11-03T03:23:17.196Z,92.98
2022-11-03T03:24:27.381Z,92.62
2022-11-03T03:25:32.869Z,92.78
2022-11-03T03:26:39.899Z,92.62
2022-11-03T03:27:49.760Z,92.97
2022-11-03T03:28:58.717Z,92.80
2022-11-03T03:30:04.192Z,93.02
2022-11-03T03:31:16.143Z,92.75
2022-11-03T03:32:22.208Z,93.02
2022-11-03T03:34:36.127Z,93.07
2022-11-03T03:35:43.660Z,93.19
2022-11-03T03:36:48.580Z,93.15
2022-11-03T03:37:56.696Z,93.20
2022-11-03T03:39:02.774Z,93.13
2022-11-03T03:40:12.025Z,93.26
2022-11-03T03:41:21.760Z,93.67
2022-11-03T03:42:28.719Z,93.75
2022-11-03T03:43:33.229Z,93.66
2022-11-03T03:44:40.805Z,93.86
2022-11-03T03:45:46.075Z,93.47
2022-11-03T03:46:54.167Z,93.94
2022-11-03T03:47:57.798Z,94.00
2022-11-03T03:49:00.936Z,94.18
2022-11-03T03:50:06.057Z,93.96
2022-11-03T03:51:12.792Z,94.17
2022-11-03T03:52:15.341Z,93.90
2022-11-03T03:53:20.742Z,94.12
2022-11-03T03:54:22.705Z,94.14
2022-11-03T03:55:32.739Z,94.19
2022-11-03T03:56:41.870Z,94.33
2022-11-03T03:57:47.187Z,94.71
2022-11-03T03:58:50.010Z,94.30
2022-11-03T03:59:54.336Z,94.40
2022-11-03T04:00:56.295Z,94.62
2022-11-03T04:02:00.176Z,94.76
2022-11-03T04:03:02.646Z,94.68
2022-11-03T04:04:05.958Z,94.85
2022-11-03T04:05:08.903Z,95.15
2022-11-03T04:06:11.812Z,94.82
2022-11-03T04:07:31.959Z,95.29
2022-11-03T04:08:35.148Z,95.15
2022-11-03T04:09:37.250Z,95.09
2022-11-03T04:10:40.355Z,94.87
2022-11-03T04:12:00.651Z,94.54
2022-11-03T04:13:20.973Z,94.87
2022-11-03T04:14:41.464Z,94.63
2022-11-03T04:16:03.320Z,94.99
2022-11-03T04:17:24.175Z,94.88
2022-11-03T04:18:44.569Z,94.88
2022-11-03T04:20:04.851Z,94.66
2022-11-03T04:21:31.577Z,94.73
2022-11-03T04:22:35.098Z,94.71
2022-11-03T04:23:36.964Z,94.28
2022-11-03T04:24:39.949Z,94.67
2022-11-03T04:25:48.073Z,94.75
2022-11-03T04:26:51.039Z,94.55
2022-11-03T04:27:52.956Z,94.34
2022-11-03T04:28:56.916Z,94.82
2022-11-03T04:30:06.548Z,94.53
2022-11-03T04:31:13.848Z,94.63
2022-11-03T04:32:17.772Z,94.43
2022-11-03T04:33:22.136Z,94.60
2022-11-03T04:34:24.805Z,94.46
2022-11-03T04:35:29.268Z,94.65
2022-11-03T04:36:31.125Z,94.59
2022-11-03T04:37:34.067Z,94.70
2022-11-03T04:38:38.322Z,94.51
2022-11-03T04:39:40.783Z,94.72
2022-11-03T04:40:49.043Z,94.65
2022-11-03T04:41:55.319Z,94.75
2022-11-03T04:42:57.925Z,94.64
2022-11-03T04:44:00.754Z,94.85
2022-11-03T04:45:14.102Z,94.81
2022-11-03T04:46:25.988Z,94.98
2022-11-03T04:47:29.792Z,94.78
2022-11-03T04:48:34.956Z,94.97
2022-11-03T04:49:37.441Z,94.46
2022-11-03T04:50:45.653Z,94.49
2022-11-03T04:51:49.846Z,95.04
2022-11-03T04:52:57.250Z,94.66
2022-11-03T04:54:03.164Z,94.57
2022-11-03T04:55:11.497Z,94.74
2022-11-03T04:56:16.280Z,94.81
2022-11-03T04:57:19.757Z,94.52
2022-11-03T04:58:23.925Z,94.78
2022-11-03T04:59:26.952Z,94.96
2022-11-03T05:00:28.864Z,94.65
2022-11-03T05:01:33.266Z,94.92
2022-11-03T05:02:35.355Z,94.66
2022-11-03T05:03:38.851Z,94.50
2022-11-03T05:04:41.670Z,94.55
2022-11-03T05:05:44.711Z,94.53
2022-11-03T05:06:50.928Z,94.67
2022-11-03T05:07:56.128Z,95.02
2022-11-03T05:09:02.085Z,94.59
2022-11-03T05:10:06.811Z,94.90
2022-11-03T05:11:15.271Z,94.68
2022-11-03T05:12:18.955Z,95.02
2022-11-03T05:13:24.085Z,94.79
2022-11-03T05:14:29.976Z,95.12
2022-11-03T05:15:35.642Z,95.14
2022-11-03T05:16:39.919Z,94.84
2022-11-03T05:17:41.897Z,95.29
2022-11-03T05:18:47.785Z,95.31
2022-11-03T05:19:52.794Z,94.90
2022-11-03T05:20:59.444Z,95.30
2022-11-03T05:22:04.641Z,95.09
2022-11-03T05:23:07.032Z,95.00
2022-11-03T05:25:34.415Z,95.43
2022-11-03T05:26:37.472Z,95.65
2022-11-03T05:27:39.422Z,95.21
2022-11-03T05:28:46.068Z,95.30
2022-11-03T05:29:49.981Z,95.31
2022-11-03T05:30:53.687Z,95.59
2022-11-03T05:31:57.227Z,95.50
2022-11-03T05:33:00.181Z,95.57
2022-11-03T05:34:07.004Z,95.85
2022-11-03T05:35:19.160Z,95.93
2022-11-03T05:36:25.374Z,95.84
2022-11-03T05:37:29.190Z,95.75
2022-11-03T05:38:34.296Z,96.02
2022-11-03T05:39:38.124Z,96.19
2022-11-03T05:40:41.709Z,96.08
2022-11-03T05:41:43.601Z,96.32
2022-11-03T05:42:48.360Z,96.13
2022-11-03T05:43:56.504Z,96.18
2022-11-03T05:45:01.446Z,96.52
2022-11-03T05:46:03.967Z,95.94
2022-11-03T05:47:14.143Z,96.51
2022-11-03T05:48:20.403Z,96.23
2022-11-03T05:49:23.393Z,96.46
2022-11-03T05:50:28.654Z,96.63
2022-11-03T05:51:40.540Z,96.40
2022-11-03T05:52:44.600Z,96.61
2022-11-03T05:53:50.305Z,96.79
2022-11-03T05:54:54.485Z,96.69
2022-11-03T05:55:59.633Z,96.90
2022-11-03T05:57:02.534Z,96.86
2022-11-03T05:58:12.435Z,96.86
2022-11-03T05:59:18.788Z,96.86
2022-11-03T06:00:28.929Z,96.86
2022-11-03T06:01:33.956Z,96.68
2022-11-03T06:02:39.102Z,96.94
2022-11-03T06:03:42.153Z,96.89
2022-11-03T06:04:44.186Z,96.66
2022-11-03T06:05:47.916Z,96.92
2022-11-03T06:06:54.124Z,96.60
2022-11-03T06:08:00.867Z,96.96
2022-11-03T06:09:10.525Z,96.99
2022-11-03T06:10:25.370Z,96.96
2022-11-03T06:11:31.875Z,97.02
2022-11-03T06:12:33.793Z,96.99
2022-11-03T06:13:38.697Z,97.16
2022-11-03T06:14:41.730Z,96.63
2022-11-03T06:15:45.806Z,97.10
2022-11-03T06:16:50.642Z,97.14
2022-11-03T06:17:54.095Z,96.94
2022-11-03T06:18:57.060Z,96.99
2022-11-03T06:20:01.741Z,96.84
2022-11-03T06:21:07.530Z,96.78
2022-11-03T06:22:16.431Z,96.65
2022-11-03T06:23:19.813Z,96.55
2022-11-03T06:24:26.291Z,96.65
2022-11-03T06:25:31.429Z,96.69
2022-11-03T06:26:34.307Z,96.94
2022-11-03T06:27:36.199Z,96.61
2022-11-03T06:28:40.229Z,96.93
2022-11-03T06:29:45.815Z,96.70
2022-11-03T06:30:51.287Z,96.86
2022-11-03T06:31:57.995Z,97.26
2022-11-03T06:33:07.414Z,96.84
2022-11-03T06:34:23.785Z,96.91
2022-11-03T06:35:27.207Z,96.87
2022-11-03T06:36:35.161Z,96.82
2022-11-03T06:37:38.069Z,96.83
2022-11-03T06:38:40.024Z,97.21
2022-11-03T06:39:42.930Z,97.28
2022-11-03T06:40:46.546Z,96.90
2022-11-03T06:41:48.492Z,97.17
2022-11-03T06:42:53.986Z,97.11
2022-11-03T06:43:58.193Z,96.85
2022-11-03T06:45:02.324Z,97.04
2022-11-03T06:46:13.961Z,97.20
2022-11-03T06:47:23.141Z,97.08
2022-11-03T06:48:29.816Z,97.03
2022-11-03T06:49:34.703Z,97.22
2022-11-03T06:50:43.825Z,96.95
2022-11-03T06:51:47.693Z,96.77
2022-11-03T06:52:50.493Z,96.78
2022-11-03T06:53:55.430Z,97.14
2022-11-03T06:55:12.103Z,96.72
2022-11-03T06:56:23.388Z,96.51
2022-11-03T06:57:25.260Z,96.76
2022-11-03T06:58:34.006Z,96.75
2022-11-03T06:59:36.045Z,96.82
2022-11-03T07:00:42.151Z,96.72
2022-11-03T07:01:50.117Z,96.48
2022-11-03T07:03:02.517Z,96.38
2022-11-03T07:04:15.952Z,96.12
2022-11-03T07:05:22.269Z,96.46
2022-11-03T07:06:27.341Z,96.10
2022-11-03T07:07:29.470Z,96.31
2022-11-03T07:08:35.617Z,96.43
2022-11-03T07:09:37.586Z,96.24
2022-11-03T07:10:40.540Z,96.38
2022-11-03T07:11:45.973Z,96.09
2022-11-03T07:12:47.892Z,95.92
2022-11-03T07:13:54.580Z,95.75
2022-11-03T07:14:58.989Z,96.03
2022-11-03T07:16:02.279Z,95.95
2022-11-03T07:17:06.875Z,95.94
2022-11-03T07:18:19.916Z,95.57
2022-11-03T07:19:26.315Z,95.47
2022-11-03T07:20:28.611Z,95.46
2022-11-03T07:21:38.801Z,95.04
2022-11-03T07:22:40.762Z,95.56
2022-11-03T07:23:46.327Z,95.28
2022-11-03T07:24:52.968Z,95.18
2022-11-03T07:26:00.507Z,94.69
2022-11-03T07:27:12.432Z,94.75
2022-11-03T07:28:16.377Z,95.04
2022-11-03T07:29:21.712Z,94.59
2022-11-03T07:30:25.849Z,94.62
2022-11-03T07:31:28.944Z,94.33
2022-11-03T07:32:33.109Z,94.54
2022-11-03T07:33:36.040Z,94.42
2022-11-03T07:34:40.363Z,94.31
2022-11-03T07:38:15.637Z,94.08
2022-11-03T07:39:21.530Z,94.30
2022-11-03T07:40:24.643Z,93.88
2022-11-03T07:41:33.959Z,93.88
2022-11-03T07:42:36.589Z,93.80
2022-11-03T07:43:40.904Z,93.69
2022-11-03T07:44:43.777Z,93.73
2022-11-03T07:45:49.237Z,93.74
2022-11-03T07:46:52.214Z,93.87
2022-11-03T07:47:54.190Z,93.88
2022-11-03T07:48:58.430Z,93.48
2022-11-03T07:50:02.248Z,93.91
2022-11-03T07:51:16.932Z,93.34
2022-11-03T07:52:23.372Z,93.48
2022-11-03T07:53:34.585Z,93.67
2022-11-03T07:54:37.552Z,93.48
2022-11-03T07:55:39.655Z,93.18
2022-11-03T07:56:46.107Z,93.54
2022-11-03T07:57:49.290Z,93.07
2022-11-03T07:58:54.957Z,93.13
2022-11-03T08:00:05.427Z,93.02
2022-11-03T08:01:25.663Z,92.92
2022-11-03T08:02:33.957Z,93.17
2022-11-03T08:03:42.943Z,93.04
2022-11-03T08:04:45.924Z,92.74
2022-11-03T08:05:49.244Z,92.72
2022-11-03T08:06:52.466Z,92.88
2022-11-03T08:07:54.347Z,92.83
2022-11-03T08:08:57.241Z,92.75
2022-11-03T08:09:59.252Z,92.54
2022-11-03T08:11:02.437Z,92.33
2022-11-03T08:12:05.936Z,92.06
2022-11-03T08:13:08.036Z,92.50
2022-11-03T08:14:11.418Z,92.20
2022-11-03T08:15:13.340Z,92.38
2022-11-03T08:16:16.231Z,92.04
2022-11-03T08:17:18.207Z,92.07
2022-11-03T08:18:21.700Z,92.09
2022-11-03T08:19:24.578Z,91.95
2022-11-03T08:20:26.644Z,92.12
2022-11-03T08:21:30.908Z,92.00
2022-11-03T08:22:32.814Z,91.45
2022-11-03T08:23:35.666Z,91.33
2022-11-03T08:24:37.583Z,91.24
2022-11-03T08:25:40.571Z,91.61
2022-11-03T08:26:43.463Z,91.23
2022-11-03T08:27:45.419Z,91.06
2022-11-03T08:28:48.604Z,91.10
2022-11-03T08:29:50.582Z,91.03
2022-11-03T08:30:53.468Z,91.13
2022-11-03T08:31:55.413Z,90.92
2022-11-03T08:32:58.328Z,91.07
2022-11-03T08:34:01.275Z,91.13
2022-11-03T08:35:03.688Z,90.94
2022-11-03T08:36:07.516Z,90.91
2022-11-03T08:37:11.789Z,90.74
2022-11-03T08:38:13.701Z,90.61
2022-11-03T08:39:17.201Z,90.24
2022-11-03T08:40:19.161Z,90.16
2022-11-03T08:41:22.026Z,90.31
2022-11-03T08:42:24.881Z,89.96
2022-11-03T08:43:32.732Z,90.38
2022-11-03T08:44:34.621Z,90.28
2022-11-03T08:45:37.532Z,90.13
2022-11-03T08:46:40.390Z,89.80
2022-11-03T08:47:42.242Z,89.95
2022-11-03T08:48:45.709Z,89.50
2022-11-03T08:49:47.626Z,89.37
2022-11-03T08:50:54.074Z,89.13
2022-11-03T08:51:55.980Z,89.04
2022-11-03T08:53:00.273Z,88.80
2022-11-03T08:54:03.195Z,88.76
2022-11-03T08:55:06.136Z,88.64
2022-11-03T08:56:12.293Z,88.28
2022-11-03T08:57:15.501Z,87.97
2022-11-03T08:58:18.464Z,88.06
2022-11-03T08:59:20.316Z,87.75
2022-11-03T09:00:23.651Z,87.82
2022-11-03T09:01:25.572Z,87.53
2022-11-03T09:02:28.543Z,87.84
2022-11-03T09:03:31.569Z,87.68
2022-11-03T09:04:33.457Z,87.28
2022-11-03T09:05:36.351Z,87.33
2022-11-03T09:06:38.256Z,87.41
2022-11-03T09:10:34.289Z,87.38
2022-11-03T09:11:38.502Z,87.13
2022-11-03T09:12:41.427Z,86.82
2022-11-03T09:13:43.316Z,87.08
2022-11-03T09:14:46.180Z,86.88
2022-11-03T09:15:49.074Z,86.45
2022-11-03T09:16:50.993Z,86.07
2022-11-03T09:17:53.964Z,86.32
2022-11-03T09:18:55.885Z,86.15
2022-11-03T09:19:58.952Z,86.13
2022-11-03T09:21:02.169Z,86.04
2022-11-03T09:22:04.110Z,85.97
2022-11-03T09:23:07.050Z,85.87
2022-11-03T09:24:10.561Z,85.49
2022-11-03T09:25:13.503Z,85.52
2022-11-03T09:26:15.463Z,85.16
2022-11-03T09:27:18.385Z,85.27
2022-11-03T09:28:20.259Z,85.29
2022-11-03T09:29:23.171Z,84.83
2022-11-03T09:30:26.053Z,84.96
2022-11-03T09:31:29.216Z,84.63
2022-11-03T09:32:32.247Z,84.58
2022-11-03T09:33:34.135Z,84.81
2022-11-03T09:34:37.035Z,84.27
2022-11-03T09:35:39.960Z,84.06
2022-11-03T09:36:41.895Z,84.25
2022-11-03T09:37:44.969Z,84.08
2022-11-03T09:38:46.930Z,84.02
2022-11-03T09:39:51.201Z,83.73
2022-11-03T09:40:54.428Z,84.01
2022-11-03T09:41:59.506Z,83.93
2022-11-03T09:43:02.797Z,83.35
2022-11-03T09:44:05.980Z,83.66
2022-11-03T09:45:11.108Z,83.31
2022-11-03T09:46:14.610Z,83.34
2022-11-03T09:47:23.987Z,82.94
2022-11-03T09:48:27.291Z,82.91
2022-11-03T09:49:31.945Z,82.50
2022-11-03T09:50:34.948Z,82.80
2022-11-03T09:51:37.010Z,82.43
2022-11-03T09:52:39.975Z,82.30
2022-11-03T09:53:41.976Z,82.01
2022-11-03T09:54:44.977Z,81.84
2022-11-03T09:55:49.244Z,81.89
2022-11-03T09:56:51.156Z,82.18
2022-11-03T09:57:56.002Z,82.03
2022-11-03T09:59:00.473Z,82.04
2022-11-03T10:00:05.599Z,81.79
2022-11-03T10:01:12.171Z,81.60
2022-11-03T10:02:22.948Z,81.25
2022-11-03T10:03:24.853Z,81.07
2022-11-03T10:04:31.177Z,81.06
2022-11-03T10:05:35.030Z,81.15
2022-11-03T10:06:37.956Z,80.77
2022-11-03T10:07:41.090Z,80.92
2022-11-03T10:08:46.329Z,80.63
2022-11-03T10:09:52.207Z,80.45
2022-11-03T10:10:55.935Z,80.65
2022-11-03T10:11:58.951Z,80.15
2022-11-03T10:13:01.898Z,80.42
2022-11-03T10:14:07.047Z,80.09
2022-11-03T10:15:15.975Z,80.30
2022-11-03T10:16:22.165Z,79.99
2022-11-03T10:17:30.846Z,79.88
2022-11-03T10:18:34.123Z,79.83
2022-11-03T10:19:37.128Z,80.30
2022-11-03T10:20:39.179Z,79.95
2022-11-03T10:21:43.373Z,79.70
2022-11-03T10:22:46.716Z,79.93
2022-11-03T10:23:50.676Z,79.69
2022-11-03T10:25:27.372Z,80.12
2022-11-03T10:26:45.168Z,79.96
2022-11-03T10:27:48.087Z,79.88
2022-11-03T10:29:00.185Z,80.04
2022-11-03T10:30:08.571Z,80.13
2022-11-03T10:31:21.851Z,80.39
2022-11-03T10:32:33.507Z,80.15
2022-11-03T10:33:38.191Z,80.28
2022-11-03T10:34:41.769Z,80.14
2022-11-03T10:35:43.985Z,80.35
2022-11-03T10:36:50.421Z,80.52
2022-11-03T10:37:52.624Z,80.27
2022-11-03T10:38:56.089Z,80.03
2022-11-03T10:39:58.639Z,79.89
2022-11-03T10:41:12.382Z,80.10
2022-11-03T10:42:24.360Z,79.93
2022-11-03T10:43:26.349Z,80.24
2022-11-03T10:44:30.839Z,80.09
2022-11-03T10:45:32.728Z,79.97
2022-11-03T10:46:49.529Z,80.02
2022-11-03T10:48:01.669Z,79.71
2022-11-03T10:50:23.245Z,79.89
2022-11-03T10:51:25.192Z,79.59
2022-11-03T10:52:30.456Z,79.73
2022-11-03T10:53:32.623Z,79.46
2022-11-03T10:54:37.880Z,79.54
2022-11-03T10:55:40.876Z,79.60
2022-11-03T10:56:44.422Z,79.33
2022-11-03T10:57:52.937Z,79.62
2022-11-03T10:58:56.350Z,79.99
2022-11-03T10:59:59.586Z,79.87
2022-11-03T11:01:01.647Z,79.42
2022-11-03T11:02:12.471Z,79.64
2022-11-03T11:03:16.610Z,79.22
2022-11-03T11:04:22.835Z,78.95
2022-11-03T11:05:25.074Z,78.98
2022-11-03T11:06:30.702Z,78.75
2022-11-03T11:07:36.314Z,79.20
2022-11-03T11:08:38.329Z,79.14
2022-11-03T11:09:41.545Z,79.37
2022-11-03T11:10:46.042Z,79.00
2022-11-03T11:12:02.390Z,78.58
2022-11-03T11:13:27.504Z,78.36
2022-11-03T11:14:39.545Z,78.14
2022-11-03T11:15:45.070Z,77.75
2022-11-03T11:16:49.214Z,77.80
2022-11-03T11:17:52.091Z,77.61
2022-11-03T11:19:02.242Z,77.38
2022-11-03T11:20:31.595Z,77.16
2022-11-03T11:22:09.909Z,76.99
2022-11-03T11:23:49.725Z,76.28
2022-11-03T11:25:03.443Z,76.46
2022-11-03T11:26:14.196Z,76.04
2022-11-03T11:27:35.710Z,75.76
2022-11-03T11:28:41.668Z,75.68
2022-11-03T11:29:44.976Z,75.63
2022-11-03T11:31:38.695Z,75.57
2022-11-03T11:33:02.205Z,75.03
2022-11-03T11:34:42.238Z,75.02
2022-11-03T11:36:21.136Z,74.33
2022-11-03T11:37:36.698Z,74.48
2022-11-03T11:39:10.506Z,74.07
2022-11-03T11:40:14.533Z,73.90
2022-11-03T11:41:17.788Z,73.80
2022-11-03T11:42:22.228Z,73.99
2022-11-03T11:43:27.954Z,74.07
2022-11-03T11:44:53.402Z,73.73
2022-11-03T11:46:42.415Z,73.80
2022-11-03T11:47:47.913Z,74.12
2022-11-03T11:48:52.113Z,73.68
2022-11-03T11:50:31.869Z,73.23
2022-11-03T11:51:34.547Z,73.73
2022-11-03T11:52:43.190Z,73.45
2022-11-03T11:53:50.953Z,73.78
2022-11-03T11:54:56.553Z,73.27
2022-11-03T11:56:01.509Z,73.18
2022-11-03T11:57:03.484Z,73.17
2022-11-03T11:58:14.082Z,73.00
2022-11-03T11:59:24.205Z,72.99
2022-11-03T12:00:30.687Z,73.16
2022-11-03T12:01:34.961Z,73.31
2022-11-03T12:02:36.870Z,73.16
2022-11-03T12:03:43.332Z,73.20
2022-11-03T12:04:47.234Z,73.16
2022-11-03T12:05:50.808Z,73.24
2022-11-03T12:06:53.929Z,73.56
2022-11-03T12:07:56.296Z,73.39
2022-11-03T12:09:06.697Z,73.27
2022-11-03T12:10:08.947Z,73.51
2022-11-03T12:11:13.609Z,73.17
2022-11-03T12:12:34.475Z,73.48
2022-11-03T12:13:49.037Z,73.80
2022-11-03T12:14:51.991Z,73.83
2022-11-03T12:15:58.217Z,73.73
2022-11-03T12:17:33.969Z,73.83
2022-11-03T12:18:40.726Z,73.72
2022-11-03T12:19:46.160Z,73.62
2022-11-03T12:20:48.151Z,73.59
2022-11-03T12:21:51.976Z,73.88
2022-11-03T12:22:54.870Z,73.79
2022-11-03T12:23:56.779Z,74.04
2022-11-03T12:25:00.843Z,74.05
2022-11-03T12:26:04.294Z,74.17
2022-11-03T12:27:20.499Z,74.19
2022-11-03T12:28:32.281Z,74.31
2022-11-03T12:29:34.190Z,74.22
2022-11-03T12:30:40.104Z,74.17
2022-11-03T12:31:44.712Z,74.24
2022-11-03T12:32:46.977Z,74.44
2022-11-03T12:33:49.898Z,74.07
2022-11-03T12:34:53.806Z,74.11
2022-11-03T12:35:57.156Z,74.30
2022-11-03T12:36:59.087Z,74.07
2022-11-03T12:38:02.124Z,74.15
2022-11-03T12:39:05.031Z,73.85
2022-11-03T12:40:07.823Z,73.91
2022-11-03T12:41:22.603Z,73.98
2022-11-03T12:42:25.436Z,73.64
2022-11-03T12:43:28.480Z,73.49
2022-11-03T12:44:30.503Z,73.47
2022-11-03T12:45:33.548Z,73.23
2022-11-03T12:46:36.455Z,73.01
2022-11-03T12:47:39.664Z,72.93
2022-11-03T12:48:44.022Z,72.88
2022-11-03T12:49:45.952Z,72.71
2022-11-03T12:50:48.867Z,72.45
2022-11-03T12:51:50.879Z,71.98
2022-11-03T12:52:53.886Z,72.25
2022-11-03T12:53:56.777Z,71.99
2022-11-03T12:54:58.641Z,72.01
2022-11-03T12:56:01.496Z,72.24
2022-11-03T12:57:04.666Z,72.07
2022-11-03T12:58:07.872Z,72.26
2022-11-03T12:59:10.266Z,71.90
2022-11-03T13:00:14.754Z,72.00
2022-11-03T13:01:16.847Z,72.13
2022-11-03T13:02:20.054Z,72.25
2022-11-03T13:03:24.359Z,72.35
2022-11-03T13:04:26.529Z,72.40
2022-11-03T13:05:29.579Z,72.37
2022-11-03T13:06:31.598Z,72.48
2022-11-03T13:07:35.171Z,72.06
2022-11-03T13:08:38.932Z,72.55
2022-11-03T13:09:41.221Z,72.49
2022-11-03T13:10:44.148Z,72.22
2022-11-03T13:12:12.921Z,72.46
2022-11-03T13:13:15.815Z,72.26
2022-11-03T13:14:17.710Z,72.02
2022-11-03T13:15:20.603Z,72.22
2022-11-03T13:16:23.354Z,72.12
2022-11-03T13:17:31.782Z,72.23
2022-11-03T13:18:40.129Z,72.34
2022-11-03T13:19:42.121Z,72.06
2022-11-03T13:20:49.868Z,72.51
2022-11-03T13:21:54.986Z,72.24
2022-11-03T13:23:01.058Z,72.23
2022-11-03T13:24:04.991Z,72.28
2022-11-03T13:25:09.057Z,72.05
2022-11-03T13:26:12.087Z,72.33
2022-11-03T13:27:14.116Z,72.43
2022-11-03T13:28:17.055Z,72.16
2022-11-03T13:29:19.035Z,72.01
2022-11-03T13:30:22.416Z,72.00
2022-11-03T13:31:24.390Z,71.72
2022-11-03T13:32:34.399Z,71.80
2022-11-03T13:33:41.947Z,71.94
2022-11-03T13:34:45.110Z,72.00
2022-11-03T13:35:51.379Z,71.93
2022-11-03T13:36:56.112Z,72.02
2022-11-03T13:38:00.494Z,72.24
2022-11-03T13:39:02.611Z,72.47
2022-11-03T13:40:07.181Z,72.58
2022-11-03T13:41:09.492Z,72.66
2022-11-03T13:42:12.454Z,72.77
2022-11-03T13:43:14.379Z,73.01
2022-11-03T13:44:17.313Z,73.22
2022-11-03T13:45:19.241Z,73.50
2022-11-03T13:46:22.171Z,73.57
2022-11-03T13:47:34.407Z,73.59
2022-11-03T13:50:15.249Z,74.05
2022-11-03T13:51:18.999Z,73.91
2022-11-03T13:52:22.444Z,74.26
2022-11-03T13:56:13.204Z,74.89
2022-11-03T14:00:07.265Z,75.12
2022-11-03T14:01:15.043Z,74.96
2022-11-03T14:05:07.229Z,75.40
2022-11-03T14:06:10.753Z,75.66
2022-11-03T14:07:13.700Z,75.96
2022-11-03T14:08:15.613Z,75.84
2022-11-03T14:09:18.626Z,75.95
2022-11-03T14:10:21.559Z,76.08
2022-11-03T14:11:41.885Z,76.25
2022-11-03T14:12:44.291Z,76.43
2022-11-03T14:13:47.271Z,76.22
2022-11-03T14:14:53.256Z,76.75
2022-11-03T14:15:56.673Z,76.84
2022-11-03T14:17:00.142Z,77.14
2022-11-03T14:18:04.098Z,77.30
2022-11-03T14:19:06.153Z,77.45
2022-11-03T14:20:13.439Z,77.83
2022-11-03T14:21:15.425Z,77.89
2022-11-03T14:22:18.632Z,78.21
2022-11-03T14:23:20.547Z,78.43
2022-11-03T14:24:23.510Z,78.24
2022-11-03T14:25:26.566Z,78.58
2022-11-03T14:26:41.644Z,78.69
2022-11-03T14:27:45.970Z,78.93